createdAt,value
2019-05-09T00:00:58.213Z,13.58
2019-05-09T00:03:34.650Z,13.85
2019-05-09T00:06:10.538Z,12.98
2019-05-09T00:08:47.834Z,13.48
2019-05-09T00:11:28.099Z,14.37
2019-05-09T00:14:04.926Z,14.00
2019-05-09T00:16:38.913Z,14.73
2019-05-09T00:19:14.647Z,14.53
2019-05-09T00:21:50.111Z,14.45
2019-05-09T00:24:25.832Z,13.98
2019-05-09T00:27:03.779Z,14.15
2019-05-09T00:29:46.357Z,13.10
2019-05-09T00:32:36.875Z,13.00
2019-05-09T00:35:27.974Z,13.05
2019-05-09T00:38:10.512Z,12.47
2019-05-09T00:40:55.328Z,12.75
2019-05-09T00:43:23.787Z,12.67
2019-05-09T00:46:16.255Z,12.23
2019-05-09T00:49:15.242Z,13.08
2019-05-09T00:51:50.185Z,14.83
2019-05-09T00:54:24.376Z,13.93
2019-05-09T00:57:05.897Z,13.15
2019-05-09T00:59:44.618Z,13.45
2019-05-09T01:02:19.236Z,12.73
2019-05-09T01:04:56.481Z,12.68
2019-05-09T01:07:31.004Z,12.33
2019-05-09T01:10:06.537Z,11.57
2019-05-09T01:12:43.376Z,12.58
2019-05-09T01:15:17.259Z,12.53
2019-05-09T01:17:53.626Z,12.58
2019-05-09T01:20:27.953Z,12.13
2019-05-09T01:23:03.454Z,12.40
2019-05-09T01:25:38.220Z,11.65
2019-05-09T01:28:13.939Z,12.47
2019-05-09T01:30:48.651Z,11.83
2019-05-09T01:36:54.084Z,11.63
2019-05-09T01:39:47.650Z,9.95
2019-05-09T01:42:23.557Z,10.38
2019-05-09T01:44:58.237Z,10.55
2019-05-09T01:47:34.154Z,10.20
2019-05-09T01:50:09.302Z,9.38
2019-05-09T01:52:45.650Z,8.80
2019-05-09T01:55:20.502Z,11.57
2019-05-09T01:57:54.979Z,10.65
2019-05-09T02:00:29.980Z,11.55
2019-05-09T02:03:05.727Z,11.50
2019-05-09T02:05:40.008Z,9.80
2019-05-09T02:08:14.756Z,10.08
2019-05-09T02:10:49.338Z,9.85
2019-05-09T02:13:24.874Z,9.85
2019-05-09T02:16:20.654Z,10.03
2019-05-09T02:19:00.258Z,9.08
2019-05-09T02:21:35.543Z,8.40
2019-05-09T02:24:14.109Z,9.70
2019-05-09T02:26:53.306Z,9.47
2019-05-09T02:29:29.815Z,10.43
2019-05-09T02:32:06.522Z,10.00
2019-05-09T02:34:46.841Z,9.20
2019-05-09T02:37:23.139Z,8.90
2019-05-09T02:39:59.176Z,9.63
2019-05-09T02:42:33.499Z,9.40
2019-05-09T02:45:08.554Z,9.30
2019-05-09T02:47:44.590Z,9.08
2019-05-09T02:50:19.708Z,8.58
2019-05-09T02:52:55.356Z,8.45
2019-05-09T02:55:30.171Z,9.10
2019-05-09T02:58:08.277Z,9.28
2019-05-09T03:01:08.243Z,8.88
2019-05-09T03:03:43.254Z,8.45
2019-05-09T03:06:19.633Z,9.35
2019-05-09T03:08:59.106Z,8.78
2019-05-09T03:11:38.967Z,9.00
2019-05-09T03:14:13.549Z,8.53
2019-05-09T03:16:49.253Z,9.35
2019-05-09T03:19:23.710Z,8.68
2019-05-09T03:22:02.629Z,8.50
2019-05-09T03:24:39.767Z,8.40
2019-05-09T03:27:20.893Z,8.15
2019-05-09T03:29:59.006Z,9.08
2019-05-09T03:32:34.332Z,8.20
2019-05-09T03:35:09.067Z,8.53
2019-05-09T03:37:43.873Z,8.85
2019-05-09T03:40:18.445Z,9.25
2019-05-09T03:42:52.693Z,8.68
2019-05-09T03:45:27.354Z,8.33
2019-05-09T03:48:02.166Z,8.98
2019-05-09T03:50:38.297Z,9.23
2019-05-09T03:53:12.393Z,8.50
2019-05-09T03:55:47.461Z,8.73
2019-05-09T03:58:22.205Z,8.00
2019-05-09T04:00:58.004Z,8.70
2019-05-09T04:03:33.924Z,8.08
2019-05-09T04:06:09.425Z,8.45
2019-05-09T04:08:44.124Z,8.25
2019-05-09T04:11:19.098Z,8.70
2019-05-09T04:14:00.378Z,8.53
2019-05-09T04:16:35.093Z,9.13
2019-05-09T04:19:10.960Z,9.00
2019-05-09T04:21:45.606Z,8.83
2019-05-09T04:24:20.070Z,8.13
2019-05-09T04:26:59.593Z,8.48
2019-05-09T04:29:33.873Z,8.58
2019-05-09T04:32:09.414Z,8.85
2019-05-09T04:34:43.996Z,8.30
2019-05-09T04:37:20.014Z,8.57
2019-05-09T04:39:59.563Z,9.00
2019-05-09T04:42:43.024Z,9.70
2019-05-09T04:45:40.219Z,9.30
2019-05-09T04:51:48.201Z,8.15
2019-05-09T04:54:22.768Z,9.43
2019-05-09T04:56:57.392Z,8.53
2019-05-09T04:59:33.402Z,8.53
2019-05-09T05:02:28.912Z,9.00
2019-05-09T05:05:03.369Z,8.73
2019-05-09T05:07:38.695Z,8.45
2019-05-09T05:10:13.400Z,9.20
2019-05-09T05:12:48.439Z,9.80
2019-05-09T05:15:23.073Z,8.18
2019-05-09T05:17:58.337Z,8.40
2019-05-09T05:20:33.155Z,8.15
2019-05-09T05:23:13.891Z,8.85
2019-05-09T05:25:48.256Z,8.40
2019-05-09T05:28:24.892Z,8.93
2019-05-09T05:31:00.254Z,8.80
2019-05-09T05:33:41.822Z,8.30
2019-05-09T05:36:18.573Z,8.20
2019-05-09T05:39:00.000Z,8.35
2019-05-09T05:41:37.920Z,7.97
2019-05-09T05:44:13.523Z,7.90
2019-05-09T05:47:07.711Z,7.65
2019-05-09T05:49:42.202Z,8.90
2019-05-09T05:52:18.510Z,9.58
2019-05-09T05:54:52.592Z,8.08
2019-05-09T05:57:28.068Z,9.00
2019-05-09T06:00:02.545Z,8.75
2019-05-09T06:02:38.481Z,8.83
2019-05-09T06:05:12.922Z,9.43
2019-05-09T06:07:48.311Z,8.27
2019-05-09T06:10:23.618Z,8.50
2019-05-09T06:12:57.865Z,8.70
2019-05-09T06:15:32.659Z,8.28
2019-05-09T06:18:07.956Z,8.90
2019-05-09T06:20:45.476Z,8.35
2019-05-09T06:23:19.370Z,7.97
2019-05-09T06:25:54.088Z,8.53
2019-05-09T06:28:29.071Z,8.73
2019-05-09T06:31:39.527Z,8.03
2019-05-09T06:34:50.413Z,8.25
2019-05-09T06:38:09.127Z,8.28
2019-05-09T06:41:20.744Z,8.50
2019-05-09T06:44:47.852Z,8.53
2019-05-09T06:48:00.515Z,8.50
2019-05-09T06:51:27.704Z,7.58
2019-05-09T06:54:41.251Z,8.08
2019-05-09T06:57:53.905Z,7.93
2019-05-09T07:01:38.691Z,8.13
2019-05-09T07:04:59.815Z,8.03
2019-05-09T07:08:18.351Z,8.00
2019-05-09T07:11:30.448Z,7.10
2019-05-09T07:14:41.897Z,7.20
2019-05-09T07:17:57.496Z,8.03
2019-05-09T07:21:08.515Z,7.50
2019-05-09T07:24:21.918Z,7.87
2019-05-09T07:27:33.135Z,7.70
2019-05-09T07:31:00.736Z,8.05
2019-05-09T07:34:38.234Z,7.53
2019-05-09T07:37:49.037Z,7.90
2019-05-09T07:41:00.928Z,7.50
2019-05-09T07:44:11.826Z,7.78
2019-05-09T07:47:22.206Z,7.08
2019-05-09T07:50:38.659Z,8.38
2019-05-09T07:53:48.261Z,7.92
2019-05-09T07:57:00.527Z,7.42
2019-05-09T08:00:11.278Z,7.58
2019-05-09T08:03:27.323Z,7.00
2019-05-09T08:06:40.554Z,7.87
2019-05-09T08:09:51.378Z,7.20
2019-05-09T08:13:02.180Z,7.77
2019-05-09T08:16:15.426Z,7.72
2019-05-09T08:19:27.465Z,7.80
2019-05-09T08:22:46.103Z,8.03
2019-05-09T08:25:54.042Z,8.48
2019-05-09T08:29:05.651Z,7.75
2019-05-09T08:32:18.106Z,7.78
2019-05-09T08:35:29.105Z,7.90
2019-05-09T08:38:40.762Z,8.25
2019-05-09T08:41:52.433Z,7.72
2019-05-09T08:45:03.176Z,7.35
2019-05-09T08:48:13.877Z,6.90
2019-05-09T08:52:06.436Z,8.28
2019-05-09T08:55:00.819Z,6.93
2019-05-09T08:58:13.026Z,7.72
2019-05-09T09:01:45.674Z,7.03
2019-05-09T09:04:43.521Z,7.25
2019-05-09T09:07:54.554Z,7.45
2019-05-09T09:11:08.380Z,7.70
2019-05-09T09:14:18.581Z,7.30
2019-05-09T09:17:29.757Z,6.47
2019-05-09T09:20:40.292Z,7.30
2019-05-09T09:23:52.526Z,6.97
2019-05-09T09:27:03.395Z,7.12
2019-05-09T09:30:20.906Z,7.15
2019-05-09T09:33:27.987Z,7.75
2019-05-09T09:36:39.210Z,8.08
2019-05-09T09:39:50.401Z,7.05
2019-05-09T09:43:04.565Z,6.85
2019-05-09T09:46:17.966Z,7.15
2019-05-09T09:49:32.161Z,7.40
2019-05-09T09:52:43.101Z,7.75
2019-05-09T09:55:53.856Z,7.65
2019-05-09T09:59:28.204Z,7.40
2019-05-09T10:02:39.999Z,7.95
2019-05-09T10:05:50.663Z,7.60
2019-05-09T10:09:01.424Z,8.10
2019-05-09T10:12:18.235Z,8.35
2019-05-09T10:15:48.500Z,8.73
2019-05-09T10:19:18.516Z,9.30
2019-05-09T10:22:29.688Z,7.75
2019-05-09T10:25:43.786Z,8.75
2019-05-09T10:28:55.808Z,8.45
2019-05-09T10:32:08.894Z,8.40
2019-05-09T10:35:27.935Z,8.40
2019-05-09T10:38:43.917Z,8.03
2019-05-09T10:42:03.350Z,8.50
2019-05-09T10:44:42.127Z,7.42
2019-05-09T10:47:22.324Z,8.65
2019-05-09T10:49:58.160Z,8.78
2019-05-09T10:52:32.713Z,9.08
2019-05-09T10:55:09.056Z,8.90
2019-05-09T10:57:43.646Z,8.15
2019-05-09T11:00:19.433Z,8.13
2019-05-09T11:02:53.840Z,8.88
2019-05-09T11:05:29.620Z,7.97
2019-05-09T11:08:04.103Z,8.33
2019-05-09T11:10:39.614Z,8.13
2019-05-09T11:13:13.967Z,8.68
2019-05-09T11:15:48.657Z,9.08
2019-05-09T11:18:23.298Z,9.05
2019-05-09T11:20:58.183Z,8.80
2019-05-09T11:23:32.764Z,8.63
2019-05-09T11:26:07.300Z,9.10
2019-05-09T11:28:41.999Z,8.68
2019-05-09T11:31:18.548Z,8.68
2019-05-09T11:33:53.100Z,9.20
2019-05-09T11:36:27.683Z,9.38
2019-05-09T11:39:11.028Z,9.68
2019-05-09T11:41:49.195Z,9.34
2019-05-09T11:44:29.266Z,9.40
2019-05-09T11:47:03.802Z,9.15
2019-05-09T11:49:39.056Z,9.73
2019-05-09T11:52:15.243Z,9.85
2019-05-09T11:54:49.760Z,10.68
2019-05-09T11:57:27.541Z,10.38
2019-05-09T12:00:01.025Z,10.03
2019-05-09T12:02:35.440Z,9.55
2019-05-09T12:05:10.892Z,9.38
2019-05-09T12:07:46.673Z,9.70
2019-05-09T12:10:21.164Z,9.75
2019-05-09T12:12:57.490Z,9.43
2019-05-09T12:15:31.547Z,9.58
2019-05-09T12:18:10.904Z,9.80
2019-05-09T12:20:41.587Z,10.08
2019-05-09T12:23:19.649Z,8.97
2019-05-09T12:25:52.013Z,9.03
2019-05-09T12:28:27.229Z,8.63
2019-05-09T12:31:01.653Z,9.45
2019-05-09T12:33:36.462Z,8.93
2019-05-09T12:36:10.947Z,8.53
2019-05-09T12:38:48.886Z,9.08
2019-05-09T12:41:22.139Z,8.98
2019-05-09T12:43:57.672Z,9.40
2019-05-09T12:46:32.348Z,9.00
2019-05-09T12:49:08.763Z,9.90
2019-05-09T12:51:44.025Z,9.50
2019-05-09T12:54:18.957Z,10.15
2019-05-09T12:56:53.557Z,9.23
2019-05-09T12:59:44.499Z,9.03
2019-05-09T13:02:06.374Z,9.03
2019-05-09T13:04:41.146Z,9.78
2019-05-09T13:07:16.075Z,9.50
2019-05-09T13:09:52.659Z,8.83
2019-05-09T13:12:29.142Z,9.25
2019-05-09T13:15:02.671Z,8.73
2019-05-09T13:17:39.665Z,9.53
2019-05-09T13:20:17.672Z,10.05
2019-05-09T13:22:50.808Z,10.45
2019-05-09T13:25:25.288Z,9.83
2019-05-09T13:27:59.834Z,9.68
2019-05-09T13:30:34.315Z,9.50
2019-05-09T13:33:10.955Z,9.58
2019-05-09T13:35:45.673Z,10.43
2019-05-09T13:38:20.289Z,10.90
2019-05-09T13:40:58.225Z,10.45
2019-05-09T13:43:31.723Z,10.18
2019-05-09T13:46:08.472Z,10.32
2019-05-09T13:49:05.179Z,9.70
2019-05-09T13:51:19.617Z,9.38
2019-05-09T13:53:54.022Z,9.83
2019-05-09T13:56:28.846Z,9.33
2019-05-09T13:59:03.169Z,9.63
2019-05-09T14:01:38.630Z,9.55
2019-05-09T14:04:13.287Z,9.83
2019-05-09T14:06:48.746Z,9.23
2019-05-09T14:09:23.232Z,9.15
2019-05-09T14:11:58.962Z,9.10
2019-05-09T14:14:33.626Z,9.90
2019-05-09T14:17:12.786Z,8.73
2019-05-09T14:19:46.713Z,9.55
2019-05-09T14:22:20.418Z,9.63
2019-05-09T14:24:55.019Z,9.38
2019-05-09T14:27:29.369Z,9.63
2019-05-09T14:30:03.627Z,9.48
2019-05-09T14:32:40.113Z,9.83
2019-05-09T14:35:18.661Z,9.98
2019-05-09T14:37:52.053Z,10.20
2019-05-09T14:40:28.158Z,9.40
2019-05-09T14:43:02.641Z,10.13
2019-05-09T14:45:38.089Z,9.60
2019-05-09T14:48:13.055Z,10.95
2019-05-09T14:50:49.534Z,9.60
2019-05-09T14:53:23.352Z,9.10
2019-05-09T14:55:58.843Z,9.75
2019-05-09T14:58:33.861Z,10.35
2019-05-09T15:01:08.792Z,9.60
2019-05-09T15:03:44.455Z,10.63
2019-05-09T15:06:19.048Z,9.10
2019-05-09T15:08:53.399Z,9.10
2019-05-09T15:11:28.404Z,9.38
2019-05-09T15:14:03.066Z,9.73
2019-05-09T15:16:39.249Z,9.90
2019-05-09T15:19:14.019Z,9.73
2019-05-09T15:21:49.048Z,9.65
2019-05-09T15:24:23.602Z,10.32
2019-05-09T15:26:58.227Z,9.10
2019-05-09T15:30:03.876Z,10.18
2019-05-09T15:32:12.037Z,9.30
2019-05-09T15:34:44.858Z,9.30
2019-05-09T15:37:19.358Z,9.53
2019-05-09T15:39:55.355Z,9.45
2019-05-09T15:42:30.896Z,9.23
2019-05-09T15:45:07.578Z,9.83
2019-05-09T15:47:42.221Z,9.88
2019-05-09T15:50:22.780Z,9.83
2019-05-09T15:52:53.415Z,9.43
2019-05-09T15:55:28.483Z,9.95
2019-05-09T15:58:02.921Z,9.40
2019-05-09T16:00:38.641Z,9.73
2019-05-09T16:03:13.440Z,9.35
2019-05-09T16:05:48.094Z,9.18
2019-05-09T16:08:22.703Z,10.53
2019-05-09T16:10:58.309Z,9.58
2019-05-09T16:13:33.991Z,10.38
2019-05-09T16:16:08.954Z,10.75
2019-05-09T16:18:44.247Z,9.83
2019-05-09T16:21:19.009Z,10.65
2019-05-09T16:23:54.197Z,10.58
2019-05-09T16:26:29.191Z,9.73
2019-05-09T16:29:03.834Z,9.38
2019-05-09T16:31:38.994Z,10.05
2019-05-09T16:34:14.831Z,10.20
2019-05-09T16:36:49.607Z,9.93
2019-05-09T16:39:24.447Z,10.30
2019-05-09T16:41:59.354Z,10.55
2019-05-09T16:44:37.230Z,9.53
2019-05-09T16:47:11.460Z,10.43
2019-05-09T16:49:47.648Z,10.45
2019-05-09T16:52:22.064Z,10.45
2019-05-09T16:55:08.244Z,10.80
2019-05-09T16:57:43.868Z,10.20
2019-05-09T17:00:27.793Z,10.63
2019-05-09T17:03:02.221Z,10.68
2019-05-09T17:05:39.235Z,10.18
2019-05-09T17:08:17.786Z,10.58
2019-05-09T17:10:52.663Z,10.40
2019-05-09T17:13:28.947Z,10.32
2019-05-09T17:16:03.502Z,11.12
2019-05-09T17:18:38.278Z,10.53
2019-05-09T17:21:29.910Z,10.88
2019-05-09T17:24:22.887Z,11.03
2019-05-09T17:26:57.995Z,10.60
2019-05-09T17:29:32.701Z,10.90
2019-05-09T17:32:07.767Z,11.73
2019-05-09T17:34:43.825Z,10.85
2019-05-09T17:37:19.655Z,11.05
2019-05-09T17:39:55.809Z,11.10
2019-05-09T17:42:30.345Z,11.15
2019-05-09T17:45:08.278Z,11.25
2019-05-09T17:47:42.574Z,11.22
2019-05-09T17:50:18.573Z,10.88
2019-05-09T17:52:52.700Z,11.68
2019-05-09T17:55:27.707Z,11.10
2019-05-09T17:58:02.386Z,11.60
2019-05-09T18:00:37.965Z,9.88
2019-05-09T18:03:15.294Z,11.63
2019-05-09T18:05:51.884Z,12.05
2019-05-09T18:08:28.153Z,11.47
2019-05-09T18:11:01.678Z,11.43
2019-05-09T18:13:37.954Z,11.53
2019-05-09T18:16:13.062Z,11.88
2019-05-09T18:18:49.599Z,11.90
2019-05-09T18:21:23.741Z,11.20
2019-05-09T18:23:58.746Z,11.70
2019-05-09T18:26:33.309Z,10.82
2019-05-09T18:29:10.577Z,11.25
2019-05-09T18:32:16.605Z,10.32
2019-05-09T18:34:52.575Z,10.50
2019-05-09T18:37:27.809Z,9.80
2019-05-09T18:40:02.151Z,9.80
2019-05-09T18:42:36.581Z,10.18
2019-05-09T18:45:11.285Z,10.90
2019-05-09T18:47:48.165Z,9.80
2019-05-09T18:50:23.786Z,9.83
2019-05-09T18:52:58.836Z,11.18
2019-05-09T18:55:33.190Z,11.28
2019-05-09T18:58:07.662Z,10.90
2019-05-09T19:00:42.323Z,11.05
2019-05-09T19:03:16.750Z,10.90
2019-05-09T19:05:53.801Z,11.57
2019-05-09T19:08:29.140Z,12.13
2019-05-09T19:11:03.926Z,11.50
2019-05-09T19:13:41.215Z,11.22
2019-05-09T19:16:33.886Z,10.82
2019-05-09T19:19:18.370Z,10.70
2019-05-09T19:22:21.944Z,10.50
2019-05-09T19:24:47.230Z,10.65
2019-05-09T19:27:21.595Z,10.58
2019-05-09T19:29:56.312Z,10.58
2019-05-09T19:32:30.943Z,10.63
2019-05-09T19:35:05.298Z,9.88
2019-05-09T19:37:39.791Z,10.18
2019-05-09T19:40:19.616Z,10.38
2019-05-09T19:42:50.624Z,9.40
2019-05-09T19:45:25.201Z,10.00
2019-05-09T19:47:59.669Z,10.40
2019-05-09T19:50:35.242Z,10.28
2019-05-09T19:53:10.642Z,10.68
2019-05-09T19:55:45.012Z,12.15
2019-05-09T19:58:19.514Z,13.78
2019-05-09T20:00:53.979Z,15.00
2019-05-09T20:03:28.312Z,16.55
2019-05-09T20:06:02.818Z,16.55
2019-05-09T20:08:37.065Z,18.45
2019-05-09T20:11:35.979Z,18.42
2019-05-09T20:14:26.827Z,18.12
2019-05-09T20:17:02.195Z,19.33
2019-05-09T20:19:36.582Z,18.27
2019-05-09T20:22:11.425Z,18.35
2019-05-09T20:24:46.126Z,18.02
2019-05-09T20:27:20.727Z,14.87
2019-05-09T20:29:55.322Z,15.32
2019-05-09T20:32:31.086Z,13.85
2019-05-09T20:35:05.686Z,12.60
2019-05-09T20:37:40.378Z,11.33
2019-05-09T20:40:15.151Z,11.60
2019-05-09T20:42:50.858Z,10.28
2019-05-09T20:45:26.671Z,9.40
2019-05-09T20:48:01.668Z,9.15
2019-05-09T20:50:36.169Z,9.90
2019-05-09T20:53:10.677Z,8.83
2019-05-09T20:55:45.297Z,9.48
2019-05-09T20:58:19.911Z,9.08
2019-05-09T21:00:55.491Z,9.15
2019-05-09T21:03:30.365Z,9.08
2019-05-09T21:06:05.128Z,9.65
2019-05-09T21:08:39.890Z,10.60
2019-05-09T21:11:14.526Z,10.93
2019-05-09T21:13:49.261Z,10.53
2019-05-09T21:16:23.986Z,10.70
2019-05-09T21:18:58.502Z,10.88
2019-05-09T21:21:33.003Z,10.30
2019-05-09T21:24:07.796Z,10.38
2019-05-09T21:26:43.003Z,9.90
2019-05-09T21:29:17.909Z,9.15
2019-05-09T21:31:52.741Z,9.60
2019-05-09T21:34:27.482Z,9.08
2019-05-09T21:37:02.039Z,9.50
2019-05-09T21:39:36.549Z,9.60
2019-05-09T21:42:10.679Z,9.23
2019-05-09T21:44:45.059Z,9.13
2019-05-09T21:47:19.589Z,9.85
2019-05-09T21:49:54.409Z,9.53
2019-05-09T21:52:30.151Z,9.55
2019-05-09T21:55:04.838Z,8.90
2019-05-09T21:57:39.357Z,9.80
2019-05-09T22:00:17.770Z,10.00
2019-05-09T22:02:52.182Z,9.68
2019-05-09T22:05:26.623Z,9.55
2019-05-09T22:08:00.653Z,8.83
2019-05-09T22:10:35.286Z,9.58
2019-05-09T22:13:09.663Z,9.68
2019-05-09T22:15:44.572Z,10.08
2019-05-09T22:18:18.903Z,9.33
2019-05-09T22:20:55.357Z,9.10
2019-05-09T22:23:30.866Z,8.80
2019-05-09T22:26:07.712Z,9.48
2019-05-09T22:28:42.221Z,8.80
2019-05-09T22:31:16.740Z,8.60
2019-05-09T22:33:54.638Z,9.45
2019-05-09T22:36:29.593Z,9.63
2019-05-09T22:39:04.409Z,9.28
2019-05-09T22:41:38.751Z,9.93
2019-05-09T22:44:13.239Z,9.03
2019-05-09T22:46:47.767Z,9.85
2019-05-09T22:49:22.359Z,9.38
2019-05-09T22:51:56.674Z,9.28
2019-05-09T22:54:31.178Z,9.33
2019-05-09T22:57:05.680Z,9.05
2019-05-09T22:59:40.199Z,9.08
2019-05-09T23:02:16.505Z,9.20
2019-05-09T23:04:51.741Z,9.10
2019-05-09T23:07:25.998Z,9.70
2019-05-09T23:10:02.133Z,9.68
2019-05-09T23:12:37.716Z,8.85
2019-05-09T23:15:14.036Z,9.10
2019-05-09T23:17:48.331Z,9.20
2019-05-09T23:20:40.404Z,9.70
2019-05-09T23:23:31.895Z,10.38
2019-05-09T23:26:06.347Z,9.48
2019-05-09T23:28:40.890Z,10.30
2019-05-09T23:31:20.406Z,9.80
2019-05-09T23:33:54.960Z,10.00
2019-05-09T23:36:39.170Z,9.73
2019-05-09T23:39:22.880Z,10.18
2019-05-09T23:41:57.431Z,9.73
2019-05-09T23:44:33.242Z,9.48
2019-05-09T23:47:07.852Z,10.70
2019-05-09T23:49:42.310Z,10.80
2019-05-09T23:52:16.807Z,9.83
2019-05-09T23:55:07.861Z,9.68
2019-05-09T23:57:59.255Z,9.75
